createdAt,value
2022-12-14T00:01:35.976Z,97672.03
2022-12-14T00:04:11.042Z,97666.97
2022-12-14T00:06:37.643Z,97660.66
2022-12-14T00:09:05.293Z,97654.16
2022-12-14T00:11:33.631Z,97646.81
2022-12-14T00:14:03.241Z,97650.50
2022-12-14T00:16:33.226Z,97647.59
2022-12-14T00:19:01.714Z,97648.88
2022-12-14T00:21:29.289Z,97655.88
2022-12-14T00:23:58.505Z,97640.66
2022-12-14T00:26:32.282Z,97642.47
2022-12-14T00:29:01.428Z,97646.34
2022-12-14T00:31:29.364Z,97652.25
2022-12-14T00:33:56.011Z,97641.31
2022-12-14T00:36:23.908Z,97643.91
2022-12-14T00:38:50.671Z,97646.16
2022-12-14T00:41:17.252Z,97650.16
2022-12-14T00:43:43.999Z,97646.88
2022-12-14T00:46:10.615Z,97647.41
2022-12-14T00:48:37.242Z,97639.34
2022-12-14T00:51:04.350Z,97640.59
2022-12-14T00:53:31.130Z,97635.03
2022-12-14T00:56:07.727Z,97631.53
2022-12-14T00:58:34.659Z,97621.66
2022-12-14T01:01:06.862Z,97627.16
2022-12-14T01:03:34.684Z,97629.00
2022-12-14T01:06:01.900Z,97627.75
2022-12-14T01:08:35.031Z,97625.44
2022-12-14T01:11:10.080Z,97627.97
2022-12-14T01:13:38.239Z,97633.56
2022-12-14T01:16:10.313Z,97635.63
2022-12-14T01:18:40.072Z,97632.31
2022-12-14T01:21:24.386Z,97628.56
2022-12-14T01:23:58.010Z,97627.31
2022-12-14T01:26:29.187Z,97633.09
2022-12-14T01:28:58.472Z,97631.81
2022-12-14T01:31:31.676Z,97619.00
2022-12-14T01:33:58.526Z,97621.97
2022-12-14T01:36:29.450Z,97627.75
2022-12-14T01:38:59.646Z,97624.31
2022-12-14T01:41:45.595Z,97617.25
2022-12-14T01:44:12.087Z,97615.00
2022-12-14T01:46:58.823Z,97605.41
2022-12-14T01:49:41.547Z,97597.28
2022-12-14T01:52:35.702Z,97589.78
2022-12-14T01:55:12.576Z,97584.25
2022-12-14T01:57:48.986Z,97570.38
2022-12-14T02:00:16.843Z,97563.03
2022-12-14T02:02:52.437Z,97567.56
2022-12-14T02:05:21.863Z,97558.25
2022-12-14T02:07:50.850Z,97564.94
2022-12-14T02:10:18.142Z,97569.56
2022-12-14T02:12:49.718Z,97556.84
2022-12-14T02:15:16.811Z,97548.53
2022-12-14T02:17:45.982Z,97538.47
2022-12-14T02:20:16.304Z,97529.56
2022-12-14T02:23:31.879Z,97523.34
2022-12-14T02:26:25.438Z,97521.50
2022-12-14T02:29:53.091Z,97519.75
2022-12-14T02:32:57.870Z,97505.69
2022-12-14T02:35:45.526Z,97505.81
2022-12-14T02:38:21.022Z,97505.38
2022-12-14T02:41:38.223Z,97499.50
2022-12-14T02:44:41.790Z,97502.06
2022-12-14T02:47:28.049Z,97496.50
2022-12-14T02:50:40.282Z,97495.66
2022-12-14T02:53:35.813Z,97486.53
2022-12-14T02:56:07.699Z,97483.53
2022-12-14T02:58:42.158Z,97471.41
2022-12-14T03:01:14.109Z,97472.75
2022-12-14T03:03:41.570Z,97468.28
2022-12-14T03:06:25.812Z,97466.56
2022-12-14T03:09:03.744Z,97461.84
2022-12-14T03:11:52.729Z,97453.97
2022-12-14T03:14:27.499Z,97452.69
2022-12-14T03:17:02.222Z,97449.22
2022-12-14T03:19:41.019Z,97450.41
2022-12-14T03:22:25.763Z,97452.53
2022-12-14T03:25:00.083Z,97451.84
2022-12-14T03:27:35.832Z,97441.38
2022-12-14T03:30:09.032Z,97438.63
2022-12-14T03:32:40.903Z,97428.78
2022-12-14T03:35:39.052Z,97420.03
2022-12-14T03:38:30.822Z,97422.56
2022-12-14T03:41:34.400Z,97413.25
2022-12-14T03:44:22.372Z,97405.13
2022-12-14T03:47:39.304Z,97396.56
2022-12-14T03:50:11.301Z,97400.09
2022-12-14T03:52:56.799Z,97403.91
2022-12-14T03:55:50.193Z,97403.97
2022-12-14T03:58:42.256Z,97413.88
2022-12-14T04:01:38.078Z,97413.88
2022-12-14T04:04:04.782Z,97415.25
2022-12-14T04:06:56.059Z,97413.34
2022-12-14T04:09:55.028Z,97407.06
2022-12-14T04:13:15.384Z,97399.88
2022-12-14T04:16:02.445Z,97412.25
2022-12-14T04:18:59.513Z,97403.16
2022-12-14T04:21:48.229Z,97407.44
2022-12-14T04:24:54.720Z,97393.44
2022-12-14T04:27:36.412Z,97394.34
2022-12-14T04:30:06.522Z,97387.50
2022-12-14T04:32:49.014Z,97385.56
2022-12-14T04:35:29.157Z,97389.88
2022-12-14T04:38:04.968Z,97387.75
2022-12-14T04:40:43.215Z,97383.97
2022-12-14T04:43:15.721Z,97385.50
2022-12-14T04:46:18.189Z,97384.75
2022-12-14T04:49:27.057Z,97398.13
2022-12-14T04:52:06.325Z,97397.06
2022-12-14T04:54:55.029Z,97391.53
2022-12-14T04:57:45.182Z,97388.06
2022-12-14T05:00:13.079Z,97394.25
2022-12-14T05:03:07.529Z,97399.94
2022-12-14T05:05:43.716Z,97396.03
2022-12-14T05:08:40.952Z,97391.22
2022-12-14T05:11:53.345Z,97392.28
2022-12-14T05:14:21.493Z,97388.69
2022-12-14T05:16:49.510Z,97393.72
2022-12-14T05:19:16.632Z,97386.63
2022-12-14T05:21:49.095Z,97383.50
2022-12-14T05:24:17.015Z,97376.56
2022-12-14T05:26:44.379Z,97377.81
2022-12-14T05:29:11.199Z,97370.84
2022-12-14T05:31:38.199Z,97362.31
2022-12-14T05:34:04.981Z,97365.88
2022-12-14T05:36:31.570Z,97362.16
2022-12-14T05:39:02.732Z,97360.94
2022-12-14T05:41:29.435Z,97352.31
2022-12-14T05:43:56.062Z,97349.69
2022-12-14T05:46:22.781Z,97340.03
2022-12-14T05:48:49.750Z,97343.69
2022-12-14T05:51:17.757Z,97343.22
2022-12-14T05:53:44.670Z,97340.03
2022-12-14T05:56:11.709Z,97335.69
2022-12-14T05:58:38.693Z,97336.63
2022-12-14T06:01:15.475Z,97329.44
2022-12-14T06:03:45.849Z,97327.72
2022-12-14T06:06:13.409Z,97322.34
2022-12-14T06:08:45.410Z,97320.59
2022-12-14T06:11:19.305Z,97316.41
2022-12-14T06:13:46.508Z,97317.31
2022-12-14T06:16:24.604Z,97306.53
2022-12-14T06:18:53.450Z,97310.84
2022-12-14T06:21:25.395Z,97302.47
2022-12-14T06:23:55.397Z,97288.44
2022-12-14T06:26:23.029Z,97290.78
2022-12-14T06:28:50.051Z,97286.19
2022-12-14T06:31:25.946Z,97286.59
2022-12-14T06:33:54.504Z,97273.28
2022-12-14T06:36:25.224Z,97277.19
2022-12-14T06:38:53.253Z,97274.59
2022-12-14T06:41:21.161Z,97269.66
2022-12-14T06:43:49.760Z,97268.28
2022-12-14T06:46:20.336Z,97256.75
2022-12-14T06:48:52.733Z,97266.94
2022-12-14T06:51:20.850Z,97259.81
2022-12-14T06:53:54.646Z,97249.66
2022-12-14T06:56:23.877Z,97240.25
2022-12-14T06:58:50.531Z,97247.09
2022-12-14T07:01:21.182Z,97248.38
2022-12-14T07:03:50.748Z,97241.63
2022-12-14T07:06:17.577Z,97239.50
2022-12-14T07:08:44.410Z,97247.72
2022-12-14T07:11:13.806Z,97237.94
2022-12-14T07:13:40.798Z,97236.88
2022-12-14T07:16:12.288Z,97232.78
2022-12-14T07:18:38.982Z,97239.44
2022-12-14T07:21:11.769Z,97237.25
2022-12-14T07:23:40.322Z,97250.16
2022-12-14T07:26:20.381Z,97240.25
2022-12-14T07:28:48.490Z,97247.94
2022-12-14T07:31:21.049Z,97251.16
2022-12-14T07:33:56.800Z,97246.44
2022-12-14T07:36:25.584Z,97244.38
2022-12-14T07:38:53.530Z,97242.63
2022-12-14T07:41:31.489Z,97233.56
2022-12-14T07:44:01.457Z,97228.16
2022-12-14T07:46:30.377Z,97228.38
2022-12-14T07:48:58.685Z,97224.50
2022-12-14T07:51:33.082Z,97229.59
2022-12-14T07:54:01.593Z,97224.13
2022-12-14T07:56:31.742Z,97236.94
2022-12-14T07:59:00.278Z,97244.19
2022-12-14T08:01:36.075Z,97247.09
2022-12-14T08:04:13.091Z,97245.72
2022-12-14T08:06:40.924Z,97252.03
2022-12-14T08:09:09.793Z,97250.38
2022-12-14T08:11:37.467Z,97253.81
2022-12-14T08:14:12.215Z,97259.16
2022-12-14T08:16:38.974Z,97268.72
2022-12-14T08:19:05.652Z,97264.09
2022-12-14T08:21:32.853Z,97270.06
2022-12-14T08:23:59.809Z,97263.03
2022-12-14T08:26:30.146Z,97263.69
2022-12-14T08:29:01.811Z,97266.28
2022-12-14T08:31:28.931Z,97276.75
2022-12-14T08:33:56.294Z,97270.97
2022-12-14T08:36:29.538Z,97261.00
2022-12-14T08:38:59.405Z,97263.50
2022-12-14T08:41:27.536Z,97263.63
2022-12-14T08:43:57.564Z,97271.25
2022-12-14T08:46:26.761Z,97271.59
2022-12-14T08:48:55.348Z,97266.78
2022-12-14T08:51:23.432Z,97269.69
2022-12-14T08:53:50.740Z,97265.81
2022-12-14T08:56:21.142Z,97262.94
2022-12-14T08:58:48.046Z,97268.47
2022-12-14T09:01:19.489Z,97262.19
2022-12-14T09:03:47.253Z,97262.53
2022-12-14T09:06:18.216Z,97264.50
2022-12-14T09:08:45.044Z,97260.66
2022-12-14T09:11:17.932Z,97266.88
2022-12-14T09:13:44.663Z,97265.75
2022-12-14T09:16:15.282Z,97270.03
2022-12-14T09:18:42.249Z,97272.63
2022-12-14T09:21:09.722Z,97290.38
2022-12-14T09:23:37.245Z,97286.75
2022-12-14T09:26:15.561Z,97292.66
2022-12-14T09:28:47.040Z,97296.75
2022-12-14T09:31:16.765Z,97294.72
2022-12-14T09:33:43.653Z,97283.06
2022-12-14T09:36:23.068Z,97287.81
2022-12-14T09:38:52.123Z,97287.69
2022-12-14T09:41:34.442Z,97282.09
2022-12-14T09:44:37.252Z,97272.47
2022-12-14T09:47:19.244Z,97273.75
2022-12-14T09:50:07.135Z,97272.38
2022-12-14T09:52:45.671Z,97274.59
2022-12-14T09:55:33.690Z,97266.88
2022-12-14T09:58:13.072Z,97256.22
2022-12-14T10:00:53.404Z,97274.63
2022-12-14T10:04:05.122Z,97260.50
2022-12-14T10:07:01.091Z,97259.22
2022-12-14T10:10:14.792Z,97260.69
2022-12-14T10:13:12.611Z,97254.38
2022-12-14T10:16:21.021Z,97248.97
2022-12-14T10:19:08.876Z,97248.75
2022-12-14T10:21:43.951Z,97252.06
2022-12-14T10:24:19.867Z,97257.78
2022-12-14T10:26:52.310Z,97249.81
2022-12-14T10:29:37.153Z,97250.97
2022-12-14T10:32:20.239Z,97250.09
2022-12-14T10:34:47.472Z,97250.09
2022-12-14T10:37:26.762Z,97252.97
2022-12-14T10:40:14.550Z,97242.13
2022-12-14T10:43:05.433Z,97239.88
2022-12-14T10:45:53.318Z,97240.84
2022-12-14T10:48:46.291Z,97230.44
2022-12-14T10:51:34.329Z,97215.53
2022-12-14T10:54:37.166Z,97212.22
2022-12-14T10:57:04.917Z,97216.38
2022-12-14T10:59:46.891Z,97213.38
2022-12-14T11:02:28.104Z,97222.13
2022-12-14T11:05:00.748Z,97213.31
2022-12-14T11:07:33.578Z,97205.78
2022-12-14T11:10:14.435Z,97211.81
2022-12-14T11:12:41.719Z,97208.19
2022-12-14T11:15:34.429Z,97201.53
2022-12-14T11:18:23.891Z,97200.22
2022-12-14T11:20:58.297Z,97204.78
2022-12-14T11:23:39.522Z,97211.75
2022-12-14T11:26:14.669Z,97211.47
2022-12-14T11:28:50.023Z,97199.56
2022-12-14T11:31:19.829Z,97194.19
2022-12-14T11:33:52.689Z,97204.81
2022-12-14T11:36:38.547Z,97202.56
2022-12-14T11:39:14.328Z,97195.91
2022-12-14T11:41:51.699Z,97193.84
2022-12-14T11:44:36.559Z,97191.50
2022-12-14T11:47:22.314Z,97204.16
2022-12-14T11:49:54.055Z,97195.75
2022-12-14T11:52:26.548Z,97186.94
2022-12-14T11:54:54.349Z,97188.28
2022-12-14T11:57:31.095Z,97187.38
2022-12-14T12:00:01.969Z,97176.19
2022-12-14T12:02:31.771Z,97176.69
2022-12-14T12:05:14.636Z,97182.97
2022-12-14T12:07:50.296Z,97191.16
2022-12-14T12:10:26.529Z,97192.19
2022-12-14T12:13:01.476Z,97195.38
2022-12-14T12:15:41.614Z,97189.56
2022-12-14T12:18:21.701Z,97193.41
2022-12-14T12:21:10.099Z,97205.06
2022-12-14T12:23:47.677Z,97195.09
2022-12-14T12:26:57.428Z,97201.06
2022-12-14T12:29:50.747Z,97206.28
2022-12-14T12:32:33.793Z,97202.22
2022-12-14T12:35:24.818Z,97202.69
2022-12-14T12:38:09.604Z,97193.28
2022-12-14T12:41:00.313Z,97196.94
2022-12-14T12:43:36.636Z,97197.44
2022-12-14T12:46:15.388Z,97196.94
2022-12-14T12:49:02.821Z,97192.19
2022-12-14T12:51:38.921Z,97202.38
2022-12-14T12:54:13.229Z,97192.81
2022-12-14T12:56:50.474Z,97192.78
2022-12-14T12:59:22.040Z,97192.88
2022-12-14T13:01:53.485Z,97193.28
2022-12-14T13:04:31.577Z,97193.97
2022-12-14T13:07:06.426Z,97195.56
2022-12-14T13:10:05.245Z,97199.03
2022-12-14T13:12:42.676Z,97188.13
2022-12-14T13:15:31.243Z,97189.41
2022-12-14T13:18:48.824Z,97187.00
2022-12-14T13:21:31.086Z,97198.13
2022-12-14T13:24:00.122Z,97200.03
2022-12-14T13:27:12.327Z,97190.03
2022-12-14T13:30:23.732Z,97197.56
2022-12-14T13:33:33.238Z,97203.28
2022-12-14T13:36:28.127Z,97209.47
2022-12-14T13:39:03.518Z,97203.75
2022-12-14T13:41:48.458Z,97206.97
2022-12-14T13:44:40.300Z,97209.16
2022-12-14T13:47:22.051Z,97207.75
2022-12-14T13:50:40.685Z,97210.06
2022-12-14T13:53:12.311Z,97203.94
2022-12-14T13:55:54.144Z,97220.59
2022-12-14T13:58:34.375Z,97216.25
2022-12-14T14:01:46.877Z,97216.03
2022-12-14T14:04:16.617Z,97200.78
2022-12-14T14:06:48.865Z,97188.47
2022-12-14T14:09:33.178Z,97200.88
2022-12-14T14:12:25.388Z,97201.72
2022-12-14T14:15:09.835Z,97217.31
2022-12-14T14:17:43.229Z,97225.50
2022-12-14T14:20:40.541Z,97221.78
2022-12-14T14:23:15.996Z,97230.06
2022-12-14T14:25:51.665Z,97238.66
2022-12-14T14:28:23.289Z,97234.81
2022-12-14T14:30:56.926Z,97236.63
2022-12-14T14:33:48.910Z,97231.56
2022-12-14T14:36:36.725Z,97224.97
2022-12-14T14:39:56.200Z,97225.38
2022-12-14T14:42:27.420Z,97220.03
2022-12-14T14:45:01.681Z,97231.25
2022-12-14T14:47:35.894Z,97231.69
2022-12-14T14:50:07.496Z,97239.28
2022-12-14T14:52:41.460Z,97243.44
2022-12-14T14:58:26.914Z,97251.94
2022-12-14T15:01:13.212Z,97250.28
2022-12-14T15:04:02.440Z,97255.97
2022-12-14T15:06:42.833Z,97250.63
2022-12-14T15:09:09.336Z,97248.59
2022-12-14T15:11:51.070Z,97265.13
2022-12-14T15:14:17.984Z,97272.94
2022-12-14T15:16:45.605Z,97269.63
2022-12-14T15:19:35.939Z,97283.44
2022-12-14T15:22:08.991Z,97288.94
2022-12-14T15:24:42.384Z,97292.84
2022-12-14T15:27:25.209Z,97293.44
2022-12-14T15:29:53.709Z,97299.34
2022-12-14T15:32:23.516Z,97301.97
2022-12-14T15:34:58.363Z,97302.88
2022-12-14T15:37:45.582Z,97312.91
2022-12-14T15:40:22.567Z,97311.75
2022-12-14T15:42:57.116Z,97314.50
2022-12-14T15:45:34.544Z,97316.13
2022-12-14T15:48:22.425Z,97320.97
2022-12-14T15:50:56.039Z,97321.69
2022-12-14T15:53:50.301Z,97326.50
2022-12-14T15:56:51.937Z,97319.66
2022-12-14T15:59:24.869Z,97327.44
2022-12-14T16:02:15.323Z,97331.00
2022-12-14T16:04:43.523Z,97337.53
2022-12-14T16:07:39.857Z,97341.69
2022-12-14T16:10:20.136Z,97338.22
2022-12-14T16:12:49.096Z,97337.88
2022-12-14T16:15:28.308Z,97341.19
2022-12-14T16:18:02.785Z,97343.47
2022-12-14T16:20:37.639Z,97348.00
2022-12-14T16:23:24.452Z,97349.84
2022-12-14T16:26:16.544Z,97356.78
2022-12-14T16:28:43.144Z,97348.47
2022-12-14T16:31:21.674Z,97345.59
2022-12-14T16:34:09.625Z,97357.34
2022-12-14T16:36:37.806Z,97353.06
2022-12-14T16:39:20.293Z,97348.31
2022-12-14T16:42:00.814Z,97361.09
2022-12-14T16:44:30.643Z,97362.38
2022-12-14T16:47:14.174Z,97359.91
2022-12-14T16:49:48.181Z,97352.88
2022-12-14T16:52:26.729Z,97356.13
2022-12-14T16:55:17.035Z,97361.63
2022-12-14T16:57:55.548Z,97371.91
2022-12-14T17:00:25.108Z,97368.66
2022-12-14T17:03:04.269Z,97378.97
2022-12-14T17:05:39.187Z,97371.19
2022-12-14T17:08:07.308Z,97377.50
2022-12-14T17:10:34.739Z,97375.00
2022-12-14T17:13:03.155Z,97384.50
2022-12-14T17:15:33.543Z,97397.56
2022-12-14T17:18:03.827Z,97404.09
2022-12-14T17:20:39.036Z,97401.56
2022-12-14T17:23:10.196Z,97402.56
2022-12-14T17:25:37.002Z,97406.59
2022-12-14T17:28:04.265Z,97407.09
2022-12-14T17:30:31.414Z,97412.38
2022-12-14T17:32:58.278Z,97418.88
2022-12-14T17:35:29.631Z,97416.13
2022-12-14T17:37:56.675Z,97407.88
2022-12-14T17:40:23.488Z,97416.38
2022-12-14T17:42:54.300Z,97419.38
2022-12-14T17:45:27.998Z,97425.91
2022-12-14T17:47:55.374Z,97422.91
2022-12-14T17:50:23.207Z,97425.44
2022-12-14T17:52:52.926Z,97424.16
2022-12-14T17:55:26.364Z,97420.41
2022-12-14T17:57:53.809Z,97425.16
2022-12-14T18:00:48.104Z,97416.66
2022-12-14T18:03:18.630Z,97428.19
2022-12-14T18:05:49.292Z,97427.19
2022-12-14T18:08:20.843Z,97427.91
2022-12-14T18:11:07.618Z,97436.47
2022-12-14T18:13:38.700Z,97443.97
2022-12-14T18:16:06.098Z,97447.75
2022-12-14T18:18:32.873Z,97448.28
2022-12-14T18:21:02.495Z,97445.75
2022-12-14T18:23:31.607Z,97439.97
2022-12-14T18:26:00.145Z,97437.44
2022-12-14T18:28:26.794Z,97439.22
2022-12-14T18:31:05.392Z,97437.47
2022-12-14T18:33:34.936Z,97441.47
2022-12-14T18:36:01.890Z,97447.69
2022-12-14T18:38:28.533Z,97450.50
2022-12-14T18:40:58.736Z,97445.22
2022-12-14T18:43:27.904Z,97453.25
2022-12-14T18:45:56.033Z,97451.22
2022-12-14T18:48:23.481Z,97451.75
2022-12-14T18:50:52.157Z,97451.75
2022-12-14T18:53:27.757Z,97448.22
2022-12-14T18:55:55.111Z,97449.25
2022-12-14T18:58:27.547Z,97452.78
2022-12-14T19:00:58.607Z,97455.25
2022-12-14T19:03:27.127Z,97454.75
2022-12-14T19:06:42.316Z,97451.72
2022-12-14T19:08:54.718Z,97456.97
2022-12-14T19:11:38.736Z,97460.97
2022-12-14T19:14:05.540Z,97461.25
2022-12-14T19:16:32.328Z,97458.50
2022-12-14T19:18:59.882Z,97467.22
2022-12-14T19:21:27.793Z,97475.97
2022-12-14T19:23:55.596Z,97483.78
2022-12-14T19:26:23.173Z,97486.16
2022-12-14T19:28:49.780Z,97486.69
2022-12-14T19:31:19.652Z,97488.72
2022-12-14T19:33:46.265Z,97483.97
2022-12-14T19:36:12.925Z,97485.28
2022-12-14T19:38:39.575Z,97482.75
2022-12-14T19:41:10.961Z,97488.94
2022-12-14T19:43:38.433Z,97484.91
2022-12-14T19:46:10.181Z,97487.13
2022-12-14T19:48:37.982Z,97483.84
2022-12-14T19:51:07.198Z,97483.50
2022-12-14T19:53:35.064Z,97488.53
2022-12-14T19:56:02.107Z,97492.78
2022-12-14T19:58:29.390Z,97500.38
2022-12-14T20:00:56.480Z,97500.38
2022-12-14T20:03:23.708Z,97506.47
2022-12-14T20:05:58.402Z,97505.13
2022-12-14T20:08:26.691Z,97501.53
2022-12-14T20:10:53.582Z,97508.84
2022-12-14T20:13:22.986Z,97509.91
2022-12-14T20:15:58.251Z,97518.16
2022-12-14T20:18:26.715Z,97520.59
2022-12-14T20:20:53.579Z,97527.28
2022-12-14T20:23:21.844Z,97528.53
2022-12-14T20:25:49.220Z,97530.72
2022-12-14T20:28:15.966Z,97546.66
2022-12-14T20:30:47.763Z,97553.16
2022-12-14T20:33:14.624Z,97544.13
2022-12-14T20:35:41.348Z,97539.06
2022-12-14T20:38:14.048Z,97538.97
2022-12-14T20:40:40.737Z,97534.22
2022-12-14T20:43:07.593Z,97529.09
2022-12-14T20:45:43.857Z,97533.09
2022-12-14T20:48:11.257Z,97537.56
2022-12-14T20:50:41.335Z,97535.59
2022-12-14T20:53:08.651Z,97534.97
2022-12-14T20:55:35.504Z,97546.41
2022-12-14T20:58:02.104Z,97537.56
2022-12-14T21:00:28.971Z,97539.53
2022-12-14T21:02:55.714Z,97536.91
2022-12-14T21:05:22.444Z,97532.50
2022-12-14T21:07:49.010Z,97544.22
2022-12-14T21:10:15.814Z,97535.53
2022-12-14T21:12:48.638Z,97544.66
2022-12-14T21:15:15.391Z,97550.53
2022-12-14T21:17:41.957Z,97547.94
2022-12-14T21:20:11.224Z,97544.19
2022-12-14T21:22:37.926Z,97538.78
2022-12-14T21:25:06.586Z,97547.19
2022-12-14T21:27:38.079Z,97543.63
2022-12-14T21:30:09.926Z,97552.41
2022-12-14T21:32:37.943Z,97551.94
2022-12-14T21:35:05.636Z,97550.69
2022-12-14T21:37:32.264Z,97546.88
2022-12-14T21:39:58.834Z,97544.69
2022-12-14T21:42:26.346Z,97543.06
2022-12-14T21:44:54.307Z,97546.97
2022-12-14T21:47:26.462Z,97540.06
2022-12-14T21:49:53.724Z,97545.72
2022-12-14T21:52:23.870Z,97538.53
2022-12-14T21:54:50.636Z,97550.16
2022-12-14T21:57:42.334Z,97544.72
2022-12-14T22:00:10.924Z,97542.72
2022-12-14T22:02:37.687Z,97546.16
2022-12-14T22:05:04.820Z,97551.50
2022-12-14T22:07:34.080Z,97556.16
2022-12-14T22:10:01.270Z,97556.09
2022-12-14T22:12:28.429Z,97570.06
2022-12-14T22:14:55.157Z,97565.53
2022-12-14T22:17:21.841Z,97567.81
2022-12-14T22:19:50.631Z,97572.38
2022-12-14T22:22:17.217Z,97576.16
2022-12-14T22:24:44.892Z,97583.31
2022-12-14T22:27:12.754Z,97579.25
2022-12-14T22:29:39.531Z,97572.13
2022-12-14T22:32:06.922Z,97566.69
2022-12-14T22:34:33.724Z,97579.97
2022-12-14T22:37:00.306Z,97583.59
2022-12-14T22:39:26.868Z,97583.03
2022-12-14T22:42:02.526Z,97581.22
2022-12-14T22:44:29.225Z,97579.94
2022-12-14T22:46:55.829Z,97579.41
2022-12-14T22:49:22.580Z,97584.63
2022-12-14T22:51:56.973Z,97575.91
2022-12-14T22:54:27.485Z,97581.00
2022-12-14T22:57:08.910Z,97579.66
2022-12-14T22:59:52.076Z,97587.59
2022-12-14T23:02:18.948Z,97596.84
2022-12-14T23:04:45.809Z,97598.94
2022-12-14T23:07:16.643Z,97603.31
2022-12-14T23:10:06.825Z,97578.78
2022-12-14T23:12:52.149Z,97585.94
2022-12-14T23:15:37.410Z,97586.94
2022-12-14T23:18:25.481Z,97595.22
2022-12-14T23:21:11.450Z,97602.09
2022-12-14T23:24:01.473Z,97600.13
2022-12-14T23:26:47.067Z,97600.56
2022-12-14T23:29:32.360Z,97600.63
2022-12-14T23:32:17.777Z,97612.19
2022-12-14T23:35:03.158Z,97613.44
2022-12-14T23:37:50.153Z,97610.00
2022-12-14T23:40:35.556Z,97614.56
2022-12-14T23:43:33.758Z,97607.38
2022-12-14T23:46:20.961Z,97613.38
2022-12-14T23:49:09.333Z,97598.13
2022-12-14T23:51:58.694Z,97606.16
2022-12-14T23:54:44.153Z,97608.88
2022-12-14T23:57:29.630Z,97611.41
